Time;durP1;ratioP1;P1;durP2;ratioP2;P2;SDS_P1;SDS_P2;PMS_P1;PMS_P2;Temp;Humidity;BMP_temperature;BMP_pressure;BME280_temperature;BME280_humidity;BME280_pressure;Samples;Min_cycle;Max_cycle;Signal;HPM_P1;HPM_P2
2023/08/09 00:01:10;;;;;;;0.10;0.10;;;;;;;22.30;100.00;101205.84;10417728;28;20050;-78
2023/08/09 00:06:12;;;;;;;0.00;0.00;;;;;;;22.36;100.00;101200.50;10412695;28;20076;-78
2023/08/09 00:11:13;;;;;;;0.00;0.00;;;;;;;22.00;100.00;101202.88;10416931;28;20045;-78
2023/08/09 00:16:15;;;;;;;0.30;0.20;;;;;;;21.78;100.00;101192.72;10401169;28;20063;-77
2023/08/09 00:21:17;;;;;;;0.47;0.05;;;;;;;22.10;100.00;101209.69;10429084;28;20399;-77
2023/08/09 00:26:18;;;;;;;0.10;0.03;;;;;;;22.29;100.00;101212.84;10419512;28;20053;-78
2023/08/09 00:31:20;;;;;;;0.32;0.03;;;;;;;22.01;100.00;101220.31;10412391;28;20045;-78
2023/08/09 00:36:22;;;;;;;0.00;0.00;;;;;;;22.29;100.00;101222.50;10418767;28;21607;-77
2023/08/09 00:41:24;;;;;;;0.10;0.10;;;;;;;21.27;100.00;101229.28;10410093;28;20038;-77
2023/08/09 00:46:26;;;;;;;0.13;0.13;;;;;;;21.60;100.00;101224.47;10404187;28;20132;-78
2023/08/09 00:51:28;;;;;;;0.10;0.03;;;;;;;21.81;100.00;101224.16;10394014;28;20402;-78
2023/08/09 00:56:30;;;;;;;0.85;0.43;;;;;;;21.83;100.00;101227.63;10399147;28;20148;-77
2023/08/09 01:01:32;;;;;;;0.17;0.15;;;;;;;21.90;100.00;101217.03;10409517;28;20091;-78
2023/08/09 01:06:44;;;;;;;0.10;0.10;;;;;;;21.90;100.00;101212.63;10416673;28;20086;-77
2023/08/09 01:11:53;;;;;;;0.17;0.10;;;;;;;21.72;100.00;101229.53;10419566;28;20045;-78
2023/08/09 01:16:56;;;;;;;0.00;0.00;;;;;;;21.84;100.00;101224.13;10408225;28;20049;-78
2023/08/09 01:22:03;;;;;;;0.00;0.00;;;;;;;21.13;100.00;101225.09;10414343;28;20522;-78
2023/08/09 01:27:05;;;;;;;0.30;0.00;;;;;;;21.00;100.00;101228.75;10407135;28;20040;-78
2023/08/09 01:32:06;;;;;;;0.40;0.32;;;;;;;21.02;100.00;101227.84;10412854;28;20041;-78
2023/08/09 01:37:17;;;;;;;0.20;0.10;;;;;;;20.74;100.00;101243.00;10408220;28;20081;-78
2023/08/09 01:42:20;;;;;;;0.00;0.00;;;;;;;20.28;100.00;101233.84;10409932;28;20096;-78
2023/08/09 01:47:22;;;;;;;0.10;0.10;;;;;;;20.35;100.00;101226.81;10406268;28;20068;-78
2023/08/09 01:52:24;;;;;;;0.20;0.13;;;;;;;20.77;100.00;101232.50;10398093;28;20049;-78
2023/08/09 01:57:26;;;;;;;0.10;0.10;;;;;;;20.64;100.00;101247.44;10415557;28;20059;-78
2023/08/09 02:02:27;;;;;;;1.13;0.28;;;;;;;20.40;100.00;101259.03;10407150;28;20129;-78
2023/08/09 02:07:29;;;;;;;0.32;0.20;;;;;;;20.54;100.00;101256.28;10407500;28;20041;-77
2023/08/09 02:12:31;;;;;;;0.08;0.05;;;;;;;20.69;100.00;101265.72;10415983;28;20052;-78
2023/08/09 02:17:34;;;;;;;0.20;0.20;;;;;;;20.28;100.00;101262.63;10407632;28;20053;-78
2023/08/09 02:22:39;;;;;;;0.00;0.00;;;;;;;19.61;100.00;101260.50;10415069;28;20403;-78
2023/08/09 02:27:41;;;;;;;0.08;0.00;;;;;;;20.28;100.00;101270.47;10398489;28;20045;-78
2023/08/09 02:32:43;;;;;;;0.20;0.00;;;;;;;20.41;100.00;101273.84;10419146;28;20072;-78
2023/08/09 02:37:44;;;;;;;0.00;0.00;;;;;;;20.40;100.00;101269.50;10404496;28;20128;-78
2023/08/09 02:42:46;;;;;;;0.00;0.00;;;;;;;19.95;100.00;101280.34;10421975;28;20065;-78
2023/08/09 02:47:48;;;;;;;0.00;0.00;;;;;;;20.08;100.00;101289.81;10421014;28;20049;-78
2023/08/09 02:52:50;;;;;;;0.10;0.10;;;;;;;20.61;100.00;101290.22;10422698;28;20049;-78
2023/08/09 02:57:51;;;;;;;0.22;0.22;;;;;;;20.52;100.00;101295.53;10426484;28;20060;-78
2023/08/09 03:02:53;;;;;;;0.20;0.20;;;;;;;20.86;100.00;101300.50;10400384;28;20045;-78
2023/08/09 03:07:56;;;;;;;0.65;0.28;;;;;;;19.95;100.00;101304.72;10422991;28;20045;-78
2023/08/09 03:12:58;;;;;;;0.20;0.20;;;;;;;19.53;100.00;101311.91;10400532;28;20492;-79
2023/08/09 03:18:00;;;;;;;0.30;0.13;;;;;;;19.86;100.00;101310.00;10413383;28;20053;-78
2023/08/09 03:23:04;;;;;;;0.22;0.22;;;;;;;19.71;100.00;101316.19;10418562;28;20045;-78
2023/08/09 03:28:07;;;;;;;0.10;0.10;;;;;;;19.96;100.00;101319.53;10406029;28;20417;-78
2023/08/09 03:33:08;;;;;;;0.75;0.55;;;;;;;19.94;100.00;101329.13;10419286;28;20138;-78
2023/08/09 03:38:13;;;;;;;0.57;0.20;;;;;;;19.99;100.00;101329.13;10420386;28;20157;-78
2023/08/09 03:43:15;;;;;;;0.13;0.13;;;;;;;20.24;100.00;101332.41;10425489;28;20084;-78
2023/08/09 03:48:17;;;;;;;0.25;0.15;;;;;;;20.04;100.00;101342.16;10416817;28;20052;-77
2023/08/09 03:53:19;;;;;;;0.90;0.65;;;;;;;19.73;100.00;101347.53;10397427;28;20049;-78
2023/08/09 03:58:21;;;;;;;1.13;0.60;;;;;;;20.34;100.00;101348.91;10414971;28;20107;-78
2023/08/09 04:03:23;;;;;;;1.25;0.30;;;;;;;20.21;100.00;101358.63;10420960;28;20103;-78
2023/08/09 04:08:26;;;;;;;0.10;0.10;;;;;;;20.54;100.00;101366.22;10412382;28;20053;-78
2023/08/09 04:13:28;;;;;;;1.00;0.47;;;;;;;20.54;100.00;101372.31;10418730;28;20041;-78
2023/08/09 04:18:29;;;;;;;0.50;0.22;;;;;;;20.26;100.00;101367.31;10413837;28;20144;-79
2023/08/09 04:23:31;;;;;;;0.43;0.25;;;;;;;20.59;100.00;101375.75;10412588;28;20041;-77
2023/08/09 04:28:32;;;;;;;1.42;0.90;;;;;;;20.78;100.00;101378.25;10417544;28;20056;-78
2023/08/09 04:33:36;;;;;;;0.55;0.40;;;;;;;20.92;100.00;101383.38;10423838;28;20056;-78
2023/08/09 04:38:38;;;;;;;1.40;0.73;;;;;;;20.65;100.00;101389.69;10414920;28;20087;-78
2023/08/09 04:43:42;;;;;;;0.45;0.30;;;;;;;20.12;100.00;101390.91;10412297;28;20049;-78
2023/08/09 04:48:44;;;;;;;0.32;0.32;;;;;;;20.40;100.00;101397.72;10393077;28;20045;-78
2023/08/09 04:53:45;;;;;;;0.75;0.55;;;;;;;21.04;100.00;101401.59;10408635;28;20041;-78
2023/08/09 04:58:47;;;;;;;0.30;0.30;;;;;;;20.72;100.00;101407.09;10411515;28;20420;-78
2023/08/09 05:03:49;;;;;;;0.60;0.47;;;;;;;21.48;100.00;101407.22;10413770;28;20067;-77
2023/08/09 05:08:51;;;;;;;1.55;0.45;;;;;;;21.23;100.00;101404.88;10415798;28;20044;-78
2023/08/09 05:13:52;;;;;;;1.10;0.68;;;;;;;21.63;100.00;101407.97;10397710;28;20050;-78
2023/08/09 05:18:54;;;;;;;2.72;0.40;;;;;;;21.36;100.00;101417.84;10394203;28;20048;-78
2023/08/09 05:23:55;;;;;;;1.58;0.28;;;;;;;21.21;100.00;101422.38;10411123;28;20037;-78
2023/08/09 05:28:57;;;;;;;1.63;0.90;;;;;;;21.00;100.00;101422.59;10413053;28;20045;-78
2023/08/09 05:33:59;;;;;;;0.00;0.00;;;;;;;21.69;100.00;101418.38;10390680;28;20076;-78
2023/08/09 05:39:01;;;;;;;0.10;0.10;;;;;;;21.54;100.00;101424.63;10409668;28;20050;-78
2023/08/09 05:44:03;;;;;;;0.38;0.32;;;;;;;21.63;100.00;101428.97;10417653;28;20041;-77
2023/08/09 05:49:05;;;;;;;0.88;0.73;;;;;;;21.45;100.00;101441.34;10422860;28;20049;-77
2023/08/09 05:54:07;;;;;;;0.93;0.50;;;;;;;22.02;100.00;101447.69;10415690;28;20042;-77
2023/08/09 05:59:10;;;;;;;0.25;0.22;;;;;;;21.80;100.00;101458.44;10419001;28;20042;-78
2023/08/09 06:04:12;;;;;;;0.60;0.40;;;;;;;21.81;100.00;101462.81;10414249;28;20493;-78
2023/08/09 06:09:13;;;;;;;0.38;0.10;;;;;;;21.72;100.00;101465.53;10407570;28;20060;-77
2023/08/09 06:14:15;;;;;;;0.15;0.10;;;;;;;21.86;100.00;101476.72;10416149;28;20037;-77
2023/08/09 06:19:17;;;;;;;0.50;0.10;;;;;;;22.00;100.00;101466.06;10400401;28;20064;-77
2023/08/09 06:24:18;;;;;;;0.30;0.30;;;;;;;21.80;100.00;101479.44;10413003;28;20049;-77
2023/08/09 06:29:20;;;;;;;1.63;0.70;;;;;;;21.76;100.00;101488.22;10398918;28;20050;-77
2023/08/09 06:34:22;;;;;;;0.75;0.25;;;;;;;21.93;100.00;101485.41;10414155;28;20040;-77
2023/08/09 06:39:24;;;;;;;0.77;0.50;;;;;;;21.54;100.00;101493.69;10399120;28;20081;-77
2023/08/09 06:44:26;;;;;;;0.80;0.75;;;;;;;21.87;100.00;101495.97;10415395;28;20054;-77
2023/08/09 06:49:27;;;;;;;0.60;0.35;;;;;;;21.82;100.00;101505.63;10391514;28;20522;-77
2023/08/09 06:54:29;;;;;;;0.47;0.43;;;;;;;22.47;100.00;101508.34;10427817;28;20479;-77
2023/08/09 06:59:30;;;;;;;0.52;0.35;;;;;;;22.19;100.00;101528.78;10414140;28;20527;-77
2023/08/09 07:04:32;;;;;;;0.43;0.17;;;;;;;22.16;100.00;101537.59;10396245;28;20051;-78
2023/08/09 07:09:34;;;;;;;0.63;0.52;;;;;;;23.32;100.00;101534.19;10416075;28;20057;-77
2023/08/09 07:14:35;;;;;;;1.08;0.68;;;;;;;22.07;100.00;101545.59;10395103;28;20485;-77
2023/08/09 07:19:37;;;;;;;0.75;0.47;;;;;;;22.70;100.00;101540.41;10412804;28;20069;-77
2023/08/09 07:24:39;;;;;;;2.58;0.38;;;;;;;22.56;100.00;101543.22;10396088;28;20049;-77
2023/08/09 07:29:40;;;;;;;0.77;0.77;;;;;;;22.22;100.00;101554.16;10410600;28;20060;-77
2023/08/09 07:34:42;;;;;;;1.95;0.50;;;;;;;22.72;100.00;101547.38;10410774;28;20041;-77
2023/08/09 07:39:43;;;;;;;0.30;0.30;;;;;;;23.57;100.00;101560.91;10409992;28;20507;-77
2023/08/09 07:44:45;;;;;;;0.10;0.10;;;;;;;23.07;100.00;101559.09;10394064;28;20417;-77
2023/08/09 07:49:47;;;;;;;0.80;0.55;;;;;;;23.13;100.00;101564.25;10412013;28;20136;-76
2023/08/09 07:54:48;;;;;;;1.63;0.47;;;;;;;22.84;100.00;101574.34;10409837;28;20124;-76
2023/08/09 07:59:50;;;;;;;1.13;0.40;;;;;;;24.11;100.00;101561.69;10419370;28;20476;-76
2023/08/09 08:04:53;;;;;;;2.50;0.93;;;;;;;23.47;100.00;101570.75;10409737;28;20484;-77
2023/08/09 08:09:55;;;;;;;0.85;0.73;;;;;;;23.79;100.00;101565.81;10410677;28;20120;-77
2023/08/09 08:14:56;;;;;;;1.30;0.77;;;;;;;24.10;100.00;101571.38;10391106;28;20397;-76
2023/08/09 08:19:58;;;;;;;0.40;0.22;;;;;;;25.21;100.00;101567.16;10406137;28;20144;-76
2023/08/09 08:25:00;;;;;;;1.55;0.60;;;;;;;24.90;100.00;101571.44;10413612;28;20090;-76
2023/08/09 08:30:04;;;;;;;0.35;0.32;;;;;;;24.42;100.00;101566.31;10414600;28;20512;-77
2023/08/09 08:35:12;;;;;;;0.85;0.80;;;;;;;24.66;100.00;101570.19;10394957;28;20038;-76
2023/08/09 08:40:17;;;;;;;1.48;0.70;;;;;;;24.38;100.00;101583.94;10393781;28;20572;-75
2023/08/09 08:45:20;;;;;;;1.58;0.88;;;;;;;25.94;100.00;101593.44;10412524;28;20050;-77
2023/08/09 08:50:25;;;;;;;1.30;0.88;;;;;;;26.20;100.00;101597.13;10411597;28;20073;-77
2023/08/09 08:55:26;;;;;;;1.88;0.63;;;;;;;25.88;100.00;101605.91;10417280;28;20046;-77
2023/08/09 09:00:28;;;;;;;1.40;0.77;;;;;;;24.32;100.00;101608.63;10385913;28;20053;-76
2023/08/09 09:05:30;;;;;;;8.00;0.77;;;;;;;25.58;100.00;101609.31;10412173;28;20037;-76
2023/08/09 09:10:32;;;;;;;0.73;0.60;;;;;;;26.27;100.00;101614.53;10402408;28;20408;-76
2023/08/09 09:15:39;;;;;;;0.98;0.85;;;;;;;24.60;100.00;101608.09;10407394;28;20046;-77
2023/08/09 09:20:41;;;;;;;0.30;0.30;;;;;;;26.15;100.00;101614.88;10413164;28;20041;-76
2023/08/09 09:25:45;;;;;;;0.93;0.80;;;;;;;26.68;100.00;101608.91;10409855;28;20048;-78
2023/08/09 09:30:59;;;;;;;1.13;0.80;;;;;;;25.29;100.00;101613.53;10428819;28;20625;-77
2023/08/09 09:36:03;;;;;;;0.17;0.17;;;;;;;26.70;100.00;101622.09;10420179;28;20041;-78
2023/08/09 09:41:07;;;;;;;0.40;0.40;;;;;;;26.45;100.00;101633.41;10413980;28;20457;-77
2023/08/09 09:46:22;;;;;;;0.40;0.40;;;;;;;26.69;100.00;101630.94;10403155;28;20045;-77
2023/08/09 09:51:28;;;;;;;0.57;0.32;;;;;;;27.70;100.00;101632.13;10409295;28;20045;-78
2023/08/09 09:56:29;;;;;;;0.63;0.47;;;;;;;26.10;100.00;101643.22;10404233;28;20073;-77
2023/08/09 10:07:42;;;;;;;0.38;0.30;;;;;;;26.90;100.00;101630.31;10448231;28;20148;-77
2023/08/09 10:12:52;;;;;;;0.45;0.10;;;;;;;27.43;100.00;101618.06;10450710;28;20040;-77
2023/08/09 10:18:03;;;;;;;0.75;0.30;;;;;;;27.18;100.00;101618.84;10455612;28;20044;-77
2023/08/09 10:23:05;;;;;;;0.13;0.13;;;;;;;26.63;100.00;101626.72;10438545;28;20099;-77
2023/08/09 10:28:08;;;;;;;0.45;0.38;;;;;;;26.01;100.00;101638.13;10447287;28;20119;-76
2023/08/09 10:33:10;;;;;;;0.28;0.28;;;;;;;27.05;100.00;101618.38;10460536;28;20072;-76
2023/08/09 10:38:16;;;;;;;0.00;0.00;;;;;;;26.91;100.00;101624.13;10438120;28;20056;-76
2023/08/09 10:43:24;;;;;;;0.63;0.63;;;;;;;26.25;100.00;101632.19;10465809;28;20047;-75
2023/08/09 10:48:27;;;;;;;0.20;0.20;;;;;;;26.61;100.00;101628.53;10435581;28;20053;-77
2023/08/09 10:53:29;;;;;;;0.10;0.10;;;;;;;25.52;100.00;101627.94;10458997;28;20458;-77
2023/08/09 10:58:31;;;;;;;0.40;0.25;;;;;;;27.27;100.00;101622.97;10427359;28;20504;-76
2023/08/09 11:03:32;;;;;;;0.10;0.10;;;;;;;27.30;100.00;101619.34;10477567;28;20033;-76
2023/08/09 11:08:34;;;;;;;0.20;0.10;;;;;;;27.35;100.00;101620.94;10455436;28;20459;-76
2023/08/09 11:13:36;;;;;;;0.00;0.00;;;;;;;26.77;100.00;101626.28;10476483;28;20041;-77
2023/08/09 11:19:02;;;;;;;0.20;0.20;;;;;;;26.26;100.00;101639.19;10454302;28;20041;-76
2023/08/09 11:24:04;;;;;;;0.45;0.40;;;;;;;25.27;100.00;101644.38;10455133;28;20041;-78
2023/08/09 11:29:06;;;;;;;0.55;0.55;;;;;;;25.61;100.00;101650.63;10461523;28;20044;-76
2023/08/09 11:34:08;;;;;;;0.43;0.30;;;;;;;25.46;100.00;101655.38;10472222;28;20091;-77
2023/08/09 11:39:12;;;;;;;1.15;0.30;;;;;;;25.14;100.00;101656.09;10450882;28;20052;-77
2023/08/09 11:44:14;;;;;;;0.35;0.20;;;;;;;25.26;100.00;101652.28;10441665;28;20055;-76
2023/08/09 11:49:16;;;;;;;0.25;0.25;;;;;;;24.78;100.00;101669.19;10443278;28;20060;-76
2023/08/09 11:54:18;;;;;;;0.52;0.20;;;;;;;24.45;100.00;101676.88;10433435;28;20056;-76
2023/08/09 11:59:21;;;;;;;0.60;0.20;;;;;;;25.54;100.00;101671.00;10436676;28;20135;-76
2023/08/09 12:04:25;;;;;;;0.88;0.57;;;;;;;25.49;100.00;101668.47;10485142;28;20407;-77
2023/08/09 12:09:30;;;;;;;0.50;0.50;;;;;;;25.96;100.00;101673.44;10471658;28;20404;-76
2023/08/09 12:14:35;;;;;;;0.30;0.30;;;;;;;25.62;100.00;101674.31;10467948;28;20049;-75
2023/08/09 12:19:36;;;;;;;3.90;0.85;;;;;;;25.72;100.00;101682.00;10441210;28;20476;-77
2023/08/09 12:24:38;;;;;;;1.60;0.57;;;;;;;25.75;100.00;101679.28;10497866;28;20044;-77
2023/08/09 12:29:40;;;;;;;0.43;0.28;;;;;;;24.83;100.00;101691.06;10430523;28;20057;-77
2023/08/09 12:34:42;;;;;;;0.75;0.50;;;;;;;25.25;100.00;101693.63;10456006;28;20060;-77
2023/08/09 12:39:44;;;;;;;0.85;0.20;;;;;;;26.40;100.00;101681.09;10443143;28;20053;-77
2023/08/09 12:44:46;;;;;;;0.57;0.40;;;;;;;27.15;100.00;101676.28;10462832;28;20041;-77
2023/08/09 12:49:47;;;;;;;0.57;0.47;;;;;;;25.49;100.00;101675.53;10439358;28;20059;-77
2023/08/09 12:54:49;;;;;;;0.90;0.60;;;;;;;26.06;100.00;101657.34;10439285;28;20051;-78
2023/08/09 12:59:51;;;;;;;2.17;0.98;;;;;;;25.90;100.00;101663.03;10438755;28;20060;-78
2023/08/09 13:04:53;;;;;;;0.43;0.43;;;;;;;26.29;100.00;101670.81;10471740;28;20491;-78
2023/08/09 13:09:54;;;;;;;0.20;0.20;;;;;;;26.06;100.00;101667.91;10438464;28;20052;-77
2023/08/09 13:14:58;;;;;;;1.23;0.50;;;;;;;25.71;100.00;101680.28;10456564;28;20485;-78
2023/08/09 13:19:59;;;;;;;1.00;0.90;;;;;;;26.04;100.00;101675.00;10453017;28;20496;-78
2023/08/09 13:25:01;;;;;;;0.10;0.10;;;;;;;26.31;100.00;101669.91;10447045;28;20045;-77
2023/08/09 13:30:04;;;;;;;0.28;0.20;;;;;;;27.19;100.00;101654.97;10437927;28;20412;-78
2023/08/09 13:35:07;;;;;;;1.25;0.52;;;;;;;26.84;100.00;101654.31;10471241;28;20051;-77
2023/08/09 13:40:09;;;;;;;0.68;0.30;;;;;;;26.62;100.00;101650.53;10437910;28;20048;-78
2023/08/09 13:45:11;;;;;;;1.55;0.47;;;;;;;25.83;100.00;101655.34;10429258;28;20047;-77
2023/08/09 13:50:14;;;;;;;0.38;0.30;;;;;;;26.64;100.00;101670.72;10421335;28;20136;-78
2023/08/09 13:55:15;;;;;;;1.52;0.43;;;;;;;27.39;100.00;101658.72;10454266;28;20049;-79
2023/08/09 14:00:17;;;;;;;0.88;0.40;;;;;;;28.23;100.00;101655.94;10429010;28;20079;-78
2023/08/09 14:05:19;;;;;;;3.10;0.47;;;;;;;27.93;100.00;101666.66;10454105;28;20041;-76
2023/08/09 14:10:20;;;;;;;0.10;0.10;;;;;;;27.55;100.00;101670.56;10439226;28;20462;-77
2023/08/09 14:15:23;;;;;;;0.10;0.00;;;;;;;28.14;100.00;101667.72;10458071;28;20063;-79
2023/08/09 14:20:24;;;;;;;0.70;0.17;;;;;;;28.10;100.00;101674.03;10446687;28;20055;-78
2023/08/09 14:25:26;;;;;;;0.00;0.00;;;;;;;28.76;100.00;101666.34;10445435;28;20495;-79
2023/08/09 14:30:28;;;;;;;0.43;0.32;;;;;;;28.59;100.00;101671.38;10443792;28;20048;-79
2023/08/09 14:35:30;;;;;;;0.00;0.00;;;;;;;28.07;100.00;101677.66;10444032;28;20045;-78
2023/08/09 14:40:32;;;;;;;0.00;0.00;;;;;;;28.53;100.00;101668.97;10435239;28;20420;-77
2023/08/09 14:45:35;;;;;;;0.15;0.00;;;;;;;28.06;100.00;101680.38;10447680;28;20068;-78
2023/08/09 14:50:37;;;;;;;0.00;0.00;;;;;;;27.99;100.00;101682.34;10487381;28;20060;-79
2023/08/09 14:55:42;;;;;;;0.03;0.00;;;;;;;27.64;100.00;101689.72;10443746;28;20107;-79
2023/08/09 15:00:43;;;;;;;0.00;0.00;;;;;;;28.52;100.00;101707.84;10450529;28;20450;-79
2023/08/09 15:05:45;;;;;;;0.00;0.00;;;;;;;29.04;100.00;101697.06;10443048;28;20037;-78
2023/08/09 15:10:47;;;;;;;0.10;0.10;;;;;;;29.35;100.00;101705.59;10448346;28;20068;-78
2023/08/09 15:15:49;;;;;;;0.10;0.10;;;;;;;28.75;100.00;101711.44;10465557;28;20419;-78
2023/08/09 15:20:52;;;;;;;0.00;0.00;;;;;;;28.06;100.00;101723.59;10464612;28;20128;-77
2023/08/09 15:25:53;;;;;;;0.00;0.00;;;;;;;28.39;100.00;101725.09;10482949;28;20037;-79
2023/08/09 15:30:56;;;;;;;0.10;0.10;;;;;;;29.17;100.00;101723.09;10430660;28;20053;-77
2023/08/09 15:35:58;;;;;;;0.10;0.05;;;;;;;27.99;100.00;101737.94;10458363;28;20060;-78
2023/08/09 15:41:02;;;;;;;0.47;0.20;;;;;;;29.14;100.00;101734.69;10425619;28;20041;-78
2023/08/09 15:46:04;;;;;;;0.40;0.10;;;;;;;28.16;100.00;101730.31;10458356;28;20048;-78
2023/08/09 15:51:05;;;;;;;0.68;0.10;;;;;;;27.84;100.00;101745.50;10462990;28;20431;-79
2023/08/09 15:56:07;;;;;;;0.00;0.00;;;;;;;28.20;100.00;101751.41;10460739;28;20036;-78
2023/08/09 16:01:12;;;;;;;0.17;0.17;;;;;;;27.70;100.00;101753.03;10457507;28;20049;-77
2023/08/09 16:06:14;;;;;;;0.00;0.00;;;;;;;27.96;100.00;101748.66;10435736;28;20461;-78
2023/08/09 16:11:15;;;;;;;0.00;0.00;;;;;;;27.75;100.00;101750.25;10451445;28;20051;-78
2023/08/09 16:16:17;;;;;;;0.00;0.00;;;;;;;26.57;100.00;101759.88;10424599;28;20072;-79
2023/08/09 16:21:35;;;;;;;0.10;0.10;;;;;;;27.44;100.00;101757.38;10454456;28;20543;-78
2023/08/09 16:26:36;;;;;;;0.90;0.35;;;;;;;27.79;100.00;101752.75;10421664;28;20045;-79
2023/08/09 16:31:38;;;;;;;0.38;0.25;;;;;;;28.31;100.00;101757.19;10439031;28;20049;-78
2023/08/09 16:36:40;;;;;;;0.00;0.00;;;;;;;27.75;100.00;101753.75;10465403;28;20052;-79
2023/08/09 16:41:41;;;;;;;0.00;0.00;;;;;;;26.74;100.00;101766.47;10447848;28;20056;-78
2023/08/09 16:46:43;;;;;;;0.00;0.00;;;;;;;27.84;100.00;101764.03;10438726;28;20072;-78
2023/08/09 16:51:45;;;;;;;0.03;0.03;;;;;;;27.29;100.00;101773.72;10452560;28;20095;-78
2023/08/09 16:56:47;;;;;;;0.20;0.17;;;;;;;27.91;100.00;101766.47;10438714;28;20460;-78
2023/08/09 17:01:48;;;;;;;0.03;0.03;;;;;;;27.68;100.00;101782.22;10438502;28;20049;-78
2023/08/09 17:06:50;;;;;;;0.00;0.00;;;;;;;26.44;100.00;101788.41;10493019;28;20048;-77
2023/08/09 17:11:52;;;;;;;0.20;0.03;;;;;;;26.51;100.00;101786.47;10425488;28;20057;-78
2023/08/09 17:16:54;;;;;;;0.10;0.10;;;;;;;27.13;100.00;101789.16;10454289;28;20049;-78
2023/08/09 17:21:55;;;;;;;0.00;0.00;;;;;;;26.54;100.00;101802.25;10421309;28;20053;-78
2023/08/09 17:26:57;;;;;;;0.00;0.00;;;;;;;27.12;100.00;101798.91;10437316;28;20044;-78
2023/08/09 17:31:59;;;;;;;0.05;0.05;;;;;;;26.52;100.00;101798.78;10445404;28;20055;-78
2023/08/09 17:37:00;;;;;;;0.00;0.00;;;;;;;26.71;100.00;101803.53;10470470;28;20043;-78
2023/08/09 17:42:04;;;;;;;0.55;0.30;;;;;;;26.64;100.00;101813.44;10439422;28;20135;-78
2023/08/09 17:47:05;;;;;;;0.03;0.03;;;;;;;25.98;100.00;101829.19;10455602;28;20514;-79
2023/08/09 17:52:07;;;;;;;0.65;0.10;;;;;;;26.59;100.00;101824.13;10496951;28;20128;-78
2023/08/09 17:57:09;;;;;;;0.30;0.03;;;;;;;26.11;100.00;101832.41;10445461;28;20395;-78
2023/08/09 18:02:11;;;;;;;0.00;0.00;;;;;;;26.54;100.00;101830.44;10429278;28;20048;-78
2023/08/09 18:07:12;;;;;;;0.20;0.20;;;;;;;25.48;100.00;101840.84;10463192;28;20133;-78
2023/08/09 18:12:14;;;;;;;0.00;0.00;;;;;;;25.56;100.00;101848.59;10478189;28;20053;-78
2023/08/09 18:17:16;;;;;;;0.00;0.00;;;;;;;25.70;100.00;101856.19;10480468;28;20044;-78
2023/08/09 18:22:17;;;;;;;0.57;0.10;;;;;;;25.31;100.00;101867.56;10465302;28;20480;-78
2023/08/09 18:27:19;;;;;;;0.00;0.00;;;;;;;24.64;100.00;101878.47;10511725;28;20055;-78
2023/08/09 18:32:21;;;;;;;0.00;0.00;;;;;;;24.56;100.00;101877.72;10463190;28;20048;-78
2023/08/09 18:37:22;;;;;;;0.00;0.00;;;;;;;24.56;100.00;101880.34;10454916;28;20516;-78
2023/08/09 18:42:24;;;;;;;0.00;0.00;;;;;;;24.18;100.00;101895.00;10429078;28;20045;-78
2023/08/09 18:47:26;;;;;;;0.22;0.00;;;;;;;24.90;100.00;101895.63;10462135;28;20036;-79
2023/08/09 18:52:27;;;;;;;0.00;0.00;;;;;;;25.09;100.00;101904.03;10468738;28;20049;-79
2023/08/09 18:57:29;;;;;;;0.00;0.00;;;;;;;24.88;100.00;101902.66;10484000;28;20049;-79
2023/08/09 19:02:32;;;;;;;0.00;0.00;;;;;;;24.62;100.00;101906.59;10435602;28;20060;-79
2023/08/09 19:07:34;;;;;;;0.10;0.10;;;;;;;23.20;100.00;101914.69;10459763;28;20132;-79
2023/08/09 19:12:36;;;;;;;0.10;0.00;;;;;;;22.91;100.00;101923.69;10444235;28;20045;-78
2023/08/09 19:17:38;;;;;;;0.00;0.00;;;;;;;23.51;100.00;101924.84;10442819;28;20041;-78
2023/08/09 19:22:40;;;;;;;0.00;0.00;;;;;;;23.67;100.00;101925.50;10442534;28;20077;-78
2023/08/09 19:27:42;;;;;;;2.00;0.35;;;;;;;23.94;100.00;101933.09;10425139;28;20037;-78
2023/08/09 19:32:44;;;;;;;0.00;0.00;;;;;;;23.28;100.00;101943.50;10419810;28;20053;-78
2023/08/09 19:37:46;;;;;;;0.00;0.00;;;;;;;23.25;100.00;101946.19;10457393;28;20072;-79
2023/08/09 19:42:47;;;;;;;0.00;0.00;;;;;;;22.68;100.00;101950.16;10440864;28;20051;-79
2023/08/09 19:47:51;;;;;;;0.00;0.00;;;;;;;22.58;100.00;101953.75;10443007;28;20040;-79
2023/08/09 19:52:52;;;;;;;0.00;0.00;;;;;;;23.02;100.00;101951.59;10430987;28;20048;-79
2023/08/09 19:57:56;;;;;;;0.00;0.00;;;;;;;22.60;100.00;101965.13;10452313;28;20067;-78
2023/08/09 20:02:57;;;;;;;0.00;0.00;;;;;;;22.19;100.00;101965.34;10432845;28;20041;-79
2023/08/09 20:08:00;;;;;;;0.00;0.00;;;;;;;22.32;100.00;101970.50;10427996;28;20037;-79
2023/08/09 20:13:03;;;;;;;0.13;0.00;;;;;;;21.83;100.00;101988.25;10438258;28;20079;-79
2023/08/09 20:18:05;;;;;;;0.17;0.00;;;;;;;22.18;100.00;101984.59;10438955;28;20395;-79
2023/08/09 20:23:07;;;;;;;0.00;0.00;;;;;;;21.42;100.00;101986.59;10439072;28;20496;-79
2023/08/09 20:28:09;;;;;;;0.00;0.00;;;;;;;21.66;100.00;101979.56;10443132;28;20053;-79
2023/08/09 20:33:13;;;;;;;0.13;0.13;;;;;;;21.58;100.00;101984.84;10456666;28;20040;-78
2023/08/09 20:38:15;;;;;;;0.00;0.00;;;;;;;21.73;100.00;101981.28;10421006;28;20499;-78
2023/08/09 20:43:18;;;;;;;0.00;0.00;;;;;;;21.33;100.00;101986.63;10437500;28;20500;-79
2023/08/09 20:48:19;;;;;;;0.00;0.00;;;;;;;21.00;100.00;101999.72;10437943;28;20041;-79
2023/08/09 20:53:21;;;;;;;0.73;0.20;;;;;;;21.22;100.00;101991.88;10444044;28;20048;-79
2023/08/09 20:58:23;;;;;;;0.00;0.00;;;;;;;21.02;100.00;101995.38;10420716;28;20044;-79
2023/08/09 21:03:24;;;;;;;0.00;0.00;;;;;;;20.85;100.00;101999.75;10455057;28;20167;-79
2023/08/09 21:08:26;;;;;;;0.00;0.00;;;;;;;21.24;100.00;101985.75;10471732;28;20052;-78
2023/08/09 21:13:28;;;;;;;0.00;0.00;;;;;;;20.78;100.00;101988.41;10439634;28;20147;-79
2023/08/09 21:18:30;;;;;;;0.00;0.00;;;;;;;20.28;100.00;101988.28;10443244;28;20407;-78
2023/08/09 21:23:41;;;;;;;0.00;0.00;;;;;;;20.36;100.00;102000.53;10437659;28;20044;-78
2023/08/09 21:28:46;;;;;;;0.17;0.10;;;;;;;20.17;100.00;102000.44;10437288;28;20408;-79
2023/08/09 21:33:48;;;;;;;0.00;0.00;;;;;;;20.50;100.00;101992.69;10440133;28;20492;-79
2023/08/09 21:38:52;;;;;;;0.00;0.00;;;;;;;19.90;100.00;102002.09;10440600;28;20049;-78
2023/08/09 21:43:53;;;;;;;0.03;0.03;;;;;;;20.11;100.00;101997.81;10463783;28;20416;-78
2023/08/09 21:48:56;;;;;;;0.00;0.00;;;;;;;19.88;100.00;101997.75;10446170;28;20049;-78
2023/08/09 21:53:58;;;;;;;0.00;0.00;;;;;;;19.99;100.00;102005.63;10441856;28;20056;-79
2023/08/09 21:59:00;;;;;;;0.40;0.20;;;;;;;20.54;100.00;102000.56;10461611;28;20460;-78
2023/08/09 22:04:02;;;;;;;0.00;0.00;;;;;;;19.99;100.00;102016.09;10466964;28;20045;-78
2023/08/09 22:09:05;;;;;;;0.30;0.00;;;;;;;18.91;100.00;102024.88;10436511;28;20048;-78
2023/08/09 22:14:06;;;;;;;0.25;0.10;;;;;;;20.46;100.00;102023.22;10420435;28;20384;-79
2023/08/09 22:19:09;;;;;;;0.85;0.20;;;;;;;20.05;100.00;102016.13;10450040;28;20048;-78
2023/08/09 22:24:11;;;;;;;0.00;0.00;;;;;;;20.09;100.00;102017.84;10436819;28;20041;-78
2023/08/09 22:29:14;;;;;;;0.00;0.00;;;;;;;20.43;100.00;102016.22;10442038;28;20040;-78
2023/08/09 22:34:19;;;;;;;0.00;0.00;;;;;;;20.27;100.00;102028.41;10436437;28;20522;-78
2023/08/09 22:39:22;;;;;;;0.00;0.00;;;;;;;20.57;100.00;102020.63;10443694;28;20053;-79
2023/08/09 22:44:24;;;;;;;0.00;0.00;;;;;;;20.50;100.00;102035.47;10452253;28;20515;-78
2023/08/09 22:49:26;;;;;;;0.00;0.00;;;;;;;20.64;100.00;102037.22;10443434;28;20549;-78
2023/08/09 22:54:27;;;;;;;0.10;0.10;;;;;;;20.53;100.00;102035.44;10478405;28;20044;-79
2023/08/09 22:59:29;;;;;;;0.17;0.17;;;;;;;20.24;100.00;102038.84;10444113;28;20079;-78